Time;durP1;ratioP1;P1;durP2;ratioP2;P2;SDS_P1;SDS_P2;PMS_P1;PMS_P2;Temp;Humidity;BMP_temperature;BMP_pressure;BME280_temperature;BME280_humidity;BME280_pressure;Samples;Min_cycle;Max_cycle;Signal;HPM_P1;HPM_P2
2022/12/05 00:00:20;;;;;;;0.00;0.00;;;;;;;3.77;100.00;101999.94;10440973;28;20726;-74
2022/12/05 00:05:21;;;;;;;0.00;0.00;;;;;;;3.75;100.00;101998.31;10430195;28;20033;-74
2022/12/05 00:10:21;;;;;;;0.00;0.00;;;;;;;3.74;100.00;101994.00;10443071;28;20029;-74
2022/12/05 00:15:22;;;;;;;0.00;0.00;;;;;;;3.70;100.00;101989.84;10440132;28;20025;-74
2022/12/05 00:20:23;;;;;;;0.00;0.00;;;;;;;3.66;100.00;101983.03;10437805;28;20309;-74
2022/12/05 00:25:23;;;;;;;0.00;0.00;;;;;;;3.59;100.00;101980.75;10420482;28;20025;-74
2022/12/05 00:30:23;;;;;;;0.00;0.00;;;;;;;3.54;100.00;101976.66;10437076;28;20036;-73
2022/12/05 00:35:24;;;;;;;0.00;0.00;;;;;;;3.50;100.00;101968.09;10414207;28;20030;-74
2022/12/05 00:40:24;;;;;;;0.00;0.00;;;;;;;3.49;100.00;101971.66;10423105;28;20028;-74
2022/12/05 00:45:24;;;;;;;0.00;0.00;;;;;;;3.45;100.00;101959.59;10427729;28;20029;-74
2022/12/05 00:50:24;;;;;;;0.00;0.00;;;;;;;3.48;100.00;101964.69;10415980;28;20039;-74
2022/12/05 00:55:25;;;;;;;0.00;0.00;;;;;;;3.49;100.00;101955.84;10414023;28;20036;-74
2022/12/05 01:00:25;;;;;;;0.00;0.00;;;;;;;3.52;100.00;101966.22;10452752;28;20474;-74
2022/12/05 01:05:25;;;;;;;0.00;0.00;;;;;;;3.53;100.00;101961.78;10432922;28;20029;-74
2022/12/05 01:10:26;;;;;;;0.00;0.00;;;;;;;3.55;100.00;101962.53;10433150;28;20029;-73
2022/12/05 01:15:26;;;;;;;0.00;0.00;;;;;;;3.57;100.00;101972.06;10437880;28;20291;-74
2022/12/05 01:20:26;;;;;;;0.00;0.00;;;;;;;3.61;100.00;101965.69;10441066;28;20060;-74
2022/12/05 01:25:26;;;;;;;0.00;0.00;;;;;;;3.61;100.00;101955.16;10415981;28;20029;-76
2022/12/05 01:30:27;;;;;;;0.00;0.00;;;;;;;3.60;100.00;101955.22;10426866;28;20033;-74
2022/12/05 01:35:32;;;;;;;0.00;0.00;;;;;;;3.61;100.00;101963.06;10422517;28;20040;-74
2022/12/05 01:40:37;;;;;;;0.00;0.00;;;;;;;3.61;100.00;101952.53;10451488;28;20040;-74
2022/12/05 01:45:40;;;;;;;0.00;0.00;;;;;;;3.62;100.00;101951.59;10437264;28;20590;-74
2022/12/05 01:50:41;;;;;;;0.00;0.00;;;;;;;3.64;100.00;101948.88;10429745;28;20033;-73
2022/12/05 01:55:43;;;;;;;0.00;0.00;;;;;;;3.65;100.00;101949.72;10450748;28;20033;-75
2022/12/05 02:00:44;;;;;;;0.03;0.03;;;;;;;3.67;100.00;101947.84;10445701;28;20402;-75
2022/12/05 02:05:51;;;;;;;0.00;0.00;;;;;;;3.67;100.00;101943.44;10443426;28;20037;-75
2022/12/05 02:10:55;;;;;;;0.00;0.00;;;;;;;3.68;100.00;101939.84;10463220;28;20130;-75
2022/12/05 02:16:27;;;;;;;0.00;0.00;;;;;;;3.71;100.00;101930.91;10448990;28;20036;-75
2022/12/05 02:21:31;;;;;;;0.00;0.00;;;;;;;3.71;100.00;101923.88;10445768;28;20162;-75
2022/12/05 02:26:37;;;;;;;0.00;0.00;;;;;;;3.73;100.00;101927.28;10424967;28;20411;-75
2022/12/05 02:31:44;;;;;;;0.00;0.00;;;;;;;3.75;100.00;101921.88;10429969;28;20164;-75
2022/12/05 02:36:53;;;;;;;0.00;0.00;;;;;;;3.75;100.00;101922.75;10426926;28;20455;-74
2022/12/05 02:42:04;;;;;;;0.00;0.00;;;;;;;3.77;100.00;101920.03;10453148;28;20480;-74
2022/12/05 02:47:06;;;;;;;0.00;0.00;;;;;;;3.79;100.00;101910.25;10436374;28;20420;-74
2022/12/05 02:52:12;;;;;;;0.00;0.00;;;;;;;3.81;100.00;101901.31;10412915;28;20492;-74
2022/12/05 02:57:14;;;;;;;0.00;0.00;;;;;;;3.81;100.00;101903.97;10456879;28;20029;-74
2022/12/05 03:02:22;;;;;;;0.00;0.00;;;;;;;3.83;100.00;101899.44;10455801;28;20031;-74
2022/12/05 03:07:26;;;;;;;0.00;0.00;;;;;;;3.84;100.00;101903.78;10426120;28;20149;-75
2022/12/05 03:12:50;;;;;;;0.00;0.00;;;;;;;3.88;100.00;101898.34;10416312;28;20038;-74
2022/12/05 03:18:07;;;;;;;0.00;0.00;;;;;;;3.89;100.00;101900.84;10416105;28;20037;-74
2022/12/05 03:23:14;;;;;;;0.00;0.00;;;;;;;3.89;100.00;101903.50;10415738;28;20107;-75
2022/12/05 03:28:24;;;;;;;0.00;0.00;;;;;;;3.90;100.00;101894.66;10415359;28;20033;-75
2022/12/05 03:33:31;;;;;;;0.00;0.00;;;;;;;3.91;100.00;101895.50;10415450;28;20480;-75
2022/12/05 03:38:56;;;;;;;0.00;0.00;;;;;;;3.92;100.00;101895.41;10415429;28;20108;-76
2022/12/05 03:44:03;;;;;;;0.00;0.00;;;;;;;3.95;100.00;101889.09;10397810;28;20128;-75
2022/12/05 03:49:16;;;;;;;0.00;0.00;;;;;;;3.96;100.00;101891.66;10415436;28;20042;-76
2022/12/05 03:54:25;;;;;;;0.00;0.00;;;;;;;3.97;100.00;101876.69;10397607;28;20037;-77
2022/12/05 03:59:34;;;;;;;0.00;0.00;;;;;;;4.00;100.00;101887.91;10416311;28;20030;-76
2022/12/05 04:04:46;;;;;;;0.00;0.00;;;;;;;4.03;100.00;101892.16;10415454;28;20498;-75
2022/12/05 04:09:52;;;;;;;0.00;0.00;;;;;;;4.03;100.00;101874.53;10440508;28;20029;-77
2022/12/05 04:14:58;;;;;;;0.00;0.00;;;;;;;4.05;100.00;101879.72;10456776;22;20048;-76
2022/12/05 04:25:54;;;;;;;0.00;0.00;;;;;;;4.07;100.00;101881.34;10447212;28;20042;-77
2022/12/05 04:31:02;;;;;;;0.00;0.00;;;;;;;4.08;100.00;101883.03;10386918;28;20029;-77
2022/12/05 04:36:18;;;;;;;0.00;0.00;;;;;;;4.12;100.00;101890.75;10408146;28;20033;-76
2022/12/05 04:41:23;;;;;;;0.00;0.00;;;;;;;4.13;100.00;101887.16;10428583;28;20025;-77
2022/12/05 04:46:24;;;;;;;0.08;0.08;;;;;;;4.13;100.00;101885.41;10426395;28;20038;-77
2022/12/05 04:51:27;;;;;;;0.00;0.00;;;;;;;4.14;100.00;101886.25;10409999;28;20033;-76
2022/12/05 04:56:33;;;;;;;0.00;0.00;;;;;;;4.13;100.00;101888.03;10411801;28;20036;-77
2022/12/05 05:01:40;;;;;;;0.10;0.10;;;;;;;4.13;100.00;101888.03;10448646;28;20041;-77
2022/12/05 05:06:41;;;;;;;0.00;0.00;;;;;;;4.13;100.00;101887.16;10403090;28;20125;-77
2022/12/05 05:11:41;;;;;;;0.00;0.00;;;;;;;4.14;100.00;101884.44;10407822;28;20037;-77
2022/12/05 05:16:41;;;;;;;0.00;0.00;;;;;;;4.15;100.00;101887.94;10383401;28;1106062;-76
2022/12/05 05:21:42;;;;;;;0.00;0.00;;;;;;;4.14;100.00;101889.72;10430832;28;20620;-77
2022/12/05 05:26:44;;;;;;;0.00;0.00;;;;;;;4.14;100.00;101887.09;10449367;28;20056;-77
2022/12/05 05:31:44;;;;;;;0.00;0.00;;;;;;;4.13;100.00;101879.25;10447958;28;20029;-76
2022/12/05 05:36:45;;;;;;;0.00;0.00;;;;;;;4.14;100.00;101875.69;10418859;28;20033;-77
2022/12/05 05:41:45;;;;;;;0.00;0.00;;;;;;;4.15;100.00;101887.94;10408006;28;20083;-76
2022/12/05 05:46:45;;;;;;;0.00;0.00;;;;;;;4.15;100.00;101880.03;10410536;28;20041;-74
2022/12/05 05:51:45;;;;;;;0.00;0.00;;;;;;;4.14;100.00;101879.19;10403843;28;20045;-73
2022/12/05 05:56:46;;;;;;;0.00;0.00;;;;;;;4.13;100.00;101889.81;10450280;28;20028;-76
2022/12/05 06:01:46;;;;;;;0.00;0.00;;;;;;;4.13;100.00;101876.63;10451318;28;20399;-76
2022/12/05 06:06:46;;;;;;;0.00;0.00;;;;;;;4.14;100.00;101878.34;10448791;28;20293;-75
2022/12/05 06:11:47;;;;;;;0.00;0.00;;;;;;;4.13;100.00;101879.25;10426295;28;20322;-76
2022/12/05 06:16:47;;;;;;;0.00;0.00;;;;;;;4.11;100.00;101879.38;10422100;28;20033;-77
2022/12/05 06:21:49;;;;;;;0.03;0.03;;;;;;;4.11;100.00;101883.78;10436752;28;20214;-77
2022/12/05 06:26:49;;;;;;;0.00;0.00;;;;;;;4.11;100.00;101879.38;10440302;28;20483;-77
2022/12/05 06:31:49;;;;;;;0.00;0.00;;;;;;;4.09;100.00;101897.06;10451957;28;20025;-76
2022/12/05 06:36:50;;;;;;;0.00;0.00;;;;;;;4.08;100.00;101895.38;10455261;28;20310;-77
2022/12/05 06:41:50;;;;;;;0.00;0.00;;;;;;;4.08;100.00;101887.47;10458066;28;20044;-76
2022/12/05 06:46:50;;;;;;;0.00;0.00;;;;;;;4.07;100.00;101894.53;10445324;28;20040;-78
2022/12/05 06:51:52;;;;;;;0.00;0.00;;;;;;;4.05;100.00;101891.13;10435825;28;20064;-80
2022/12/05 06:56:52;;;;;;;0.00;0.00;;;;;;;4.05;100.00;101899.03;10456865;28;20032;-80
2022/12/05 07:01:52;;;;;;;0.00;0.00;;;;;;;4.02;100.00;101895.72;10432610;28;20033;-78
2022/12/05 07:06:54;;;;;;;0.00;0.00;;;;;;;4.02;100.00;101899.22;10447495;28;20033;-78
2022/12/05 07:11:54;;;;;;;0.00;0.00;;;;;;;4.00;100.00;101895.81;10421988;28;20037;-78
2022/12/05 07:16:54;;;;;;;0.00;0.00;;;;;;;3.97;100.00;101895.16;10440935;28;20029;-79
2022/12/05 07:21:55;;;;;;;0.00;0.00;;;;;;;3.94;100.00;101887.41;10439657;28;20083;-78
2022/12/05 07:26:55;;;;;;;0.00;0.00;;;;;;;3.91;100.00;101891.09;10449346;28;20116;-80
2022/12/05 07:31:56;;;;;;;0.00;0.00;;;;;;;3.88;100.00;101893.06;10443609;28;20033;-80
2022/12/05 07:36:56;;;;;;;0.00;0.00;;;;;;;3.84;100.00;101890.59;10452951;28;20025;-80
2022/12/05 07:41:56;;;;;;;0.00;0.00;;;;;;;3.82;100.00;101894.25;10446027;28;20029;-79
2022/12/05 07:46:57;;;;;;;0.00;0.00;;;;;;;3.75;100.00;101888.50;10434514;28;20044;-79
2022/12/05 07:51:57;;;;;;;0.00;0.00;;;;;;;3.71;100.00;101899.31;10414754;28;20037;-77
2022/12/05 07:56:58;;;;;;;0.00;0.00;;;;;;;3.62;100.00;101893.63;10420291;28;20093;-77
2022/12/05 08:01:58;;;;;;;0.00;0.00;;;;;;;3.60;100.00;101897.28;10455588;28;20040;-79
2022/12/05 08:06:58;;;;;;;0.00;0.00;;;;;;;3.55;100.00;101894.91;10427742;28;20280;-79
2022/12/05 08:11:58;;;;;;;0.00;0.00;;;;;;;3.52;100.00;101897.72;10444216;28;20096;-79
2022/12/05 08:16:59;;;;;;;0.00;0.00;;;;;;;3.51;100.00;101900.44;10450145;28;20048;-79
2022/12/05 08:21:59;;;;;;;0.00;0.00;;;;;;;3.47;100.00;101891.88;10449354;28;20639;-79
2022/12/05 08:26:59;;;;;;;0.00;0.00;;;;;;;3.47;100.00;101902.41;10448908;28;20099;-78
2022/12/05 08:32:00;;;;;;;0.00;0.00;;;;;;;3.47;100.00;101910.31;10440421;28;20059;-79
2022/12/05 08:37:00;;;;;;;0.00;0.00;;;;;;;3.45;100.00;101912.16;10447095;28;20109;-78
2022/12/05 08:42:00;;;;;;;0.00;0.00;;;;;;;3.45;100.00;101921.88;10440390;28;20256;-79
2022/12/05 08:47:01;;;;;;;0.00;0.00;;;;;;;3.41;100.00;101918.56;10444556;28;20045;-79
2022/12/05 08:52:01;;;;;;;0.00;0.00;;;;;;;3.37;100.00;101917.00;10434928;28;20034;-78
2022/12/05 08:57:01;;;;;;;0.00;0.00;;;;;;;3.31;100.00;101920.00;10445478;28;20025;-78
2022/12/05 09:02:02;;;;;;;0.00;0.00;;;;;;;3.28;100.00;101915.75;10442261;28;20279;-77
2022/12/05 09:07:03;;;;;;;0.00;0.00;;;;;;;3.28;100.00;101909.63;10434406;28;20285;-78
2022/12/05 09:12:03;;;;;;;0.00;0.00;;;;;;;3.27;100.00;101916.69;10440005;28;20400;-77
2022/12/05 09:17:03;;;;;;;0.00;0.00;;;;;;;3.27;100.00;101919.31;10444734;28;20256;-78
2022/12/05 09:22:04;;;;;;;0.00;0.00;;;;;;;3.28;100.00;101915.75;10442324;28;20029;-78
2022/12/05 09:27:04;;;;;;;0.00;0.00;;;;;;;3.23;100.00;101914.28;10446367;28;20052;-78
2022/12/05 09:32:04;;;;;;;0.00;0.00;;;;;;;3.23;100.00;101916.94;10442777;28;20248;-78
2022/12/05 09:37:06;;;;;;;0.00;0.00;;;;;;;3.23;100.00;101936.22;10452041;28;20029;-78
2022/12/05 09:42:42;;;;;;;0.00;0.00;;;;;;;3.22;100.00;101926.63;10437345;28;20092;-77
2022/12/05 09:47:57;;;;;;;0.00;0.00;;;;;;;3.22;100.00;101917.88;10435662;28;20025;-79
2022/12/05 09:53:22;;;;;;;0.00;0.00;;;;;;;3.21;100.00;101921.44;10418734;28;20039;-78
2022/12/05 09:58:25;;;;;;;0.00;0.00;;;;;;;3.16;100.00;101924.31;10442715;28;20032;-78
2022/12/05 10:04:07;;;;;;;0.00;0.00;;;;;;;2.99;100.00;101914.72;10449135;28;20404;-78
2022/12/05 10:09:53;;;;;;;0.00;0.00;;;;;;;2.90;100.00;101925.75;10426094;28;20037;-79
2022/12/05 10:15:08;;;;;;;0.00;0.00;;;;;;;2.83;100.00;101925.22;10419718;28;20048;-77
2022/12/05 10:20:42;;;;;;;0.00;0.00;;;;;;;2.77;100.00;101917.66;10453429;22;20412;-91
2022/12/05 10:26:26;;;;;;;0.00;0.00;;;;;;;2.57;100.00;101902.94;10435102;28;20031;-90
2022/12/05 10:37:24;;;;;;;0.00;0.00;;;;;;;2.59;100.00;101903.72;10404706;28;20022;-90
2022/12/05 10:42:30;;;;;;;0.00;0.00;;;;;;;2.66;100.00;101914.75;10387864;28;20030;-88
2022/12/05 10:47:31;;;;;;;0.00;0.00;;;;;;;2.66;100.00;101915.59;10388882;28;20065;-89
2022/12/05 10:52:32;;;;;;;0.00;0.00;;;;;;;2.66;100.00;101909.50;10394001;28;20120;-89
2022/12/05 10:57:32;;;;;;;0.00;0.00;;;;;;;2.62;100.00;101907.97;10382935;28;20414;-89
2022/12/05 11:02:33;;;;;;;0.00;0.00;;;;;;;2.63;100.00;101904.41;10380677;28;20033;-93
2022/12/05 11:07:42;;;;;;;0.00;0.00;;;;;;;2.60;100.00;101905.41;10381107;28;20049;-89
2022/12/05 11:12:44;;;;;;;0.00;0.00;;;;;;;2.59;100.00;101895.81;10400719;28;20030;-88
2022/12/05 11:17:45;;;;;;;0.00;0.00;;;;;;;2.60;100.00;101881.72;10392723;28;20033;-89
2022/12/05 11:22:48;;;;;;;0.00;0.00;;;;;;;2.62;100.00;101890.41;10391059;28;20482;-88
2022/12/05 11:27:48;;;;;;;0.00;0.00;;;;;;;2.59;100.00;101885.31;10379680;28;20500;-90
2022/12/05 11:32:50;;;;;;;0.00;0.00;;;;;;;2.62;100.00;101874.63;10379262;28;20125;-90
2022/12/05 11:38:01;;;;;;;0.00;0.00;;;;;;;2.59;100.00;101866.91;10383175;28;20257;-88
2022/12/05 11:43:08;;;;;;;0.00;0.00;;;;;;;2.62;100.00;101885.13;10397563;28;20045;-88
2022/12/05 11:48:30;;;;;;;0.00;0.00;;;;;;;2.57;100.00;101871.38;10381460;28;20045;-89
2022/12/05 11:53:54;;;;;;;0.00;0.00;;;;;;;2.56;100.00;101868.81;10377523;28;20413;-89
2022/12/05 11:59:07;;;;;;;0.00;0.00;;;;;;;2.59;100.00;101871.28;10382818;28;20025;-89
2022/12/05 12:04:13;;;;;;;0.00;0.00;;;;;;;2.59;100.00;101872.16;10394518;28;20037;-88
2022/12/05 12:09:22;;;;;;;0.00;0.00;;;;;;;2.58;100.00;101857.28;10378854;28;20033;-89
2022/12/05 12:14:41;;;;;;;0.00;0.00;;;;;;;2.57;100.00;101860.84;10398788;28;20477;-88
2022/12/05 12:19:51;;;;;;;0.00;0.00;;;;;;;2.56;100.00;101855.66;10381027;28;20095;-88
2022/12/05 12:25:19;;;;;;;0.00;0.00;;;;;;;2.55;100.00;101862.72;10376959;28;20029;-89
2022/12/05 12:30:26;;;;;;;0.00;0.00;;;;;;;2.53;100.00;101858.47;10383267;28;20401;-88
2022/12/05 12:35:29;;;;;;;0.00;0.00;;;;;;;2.52;100.00;101856.78;10376826;28;20068;-89
2022/12/05 12:40:48;;;;;;;0.00;0.00;;;;;;;2.47;100.00;101855.25;10375764;28;20026;-88
2022/12/05 12:46:19;;;;;;;0.00;0.00;;;;;;;2.48;100.00;101866.59;10372398;28;20025;-89
2022/12/05 12:51:20;;;;;;;0.00;0.00;;;;;;;2.48;100.00;101850.84;10377239;28;20025;-89
2022/12/05 12:56:55;;;;;;;0.00;0.00;;;;;;;2.46;100.00;101848.28;10380583;28;20397;-89
2022/12/05 13:02:08;;;;;;;0.00;0.00;;;;;;;2.43;100.00;101848.44;10378176;28;20037;-89
2022/12/05 13:07:14;;;;;;;0.00;0.00;;;;;;;2.45;100.00;101840.47;10373115;28;20409;-87
2022/12/05 13:12:20;;;;;;;0.00;0.00;;;;;;;2.42;100.00;101838.00;10378910;28;20092;-89
2022/12/05 13:17:22;;;;;;;0.00;0.00;;;;;;;2.42;100.00;101838.00;10402893;28;20064;-88
2022/12/05 13:22:24;;;;;;;0.00;0.00;;;;;;;2.44;100.00;101844.03;10373405;28;20033;-90
2022/12/05 13:27:26;;;;;;;0.00;0.00;;;;;;;2.40;100.00;101842.50;10376259;28;20084;-90
2022/12/05 13:32:35;;;;;;;0.00;0.00;;;;;;;2.32;100.00;101834.16;10392629;28;20029;-89
2022/12/05 13:43:04;;;;;;;0.00;0.00;;;;;;;2.32;100.00;101828.91;10394997;28;20030;-89
2022/12/05 13:48:08;;;;;;;0.00;0.00;;;;;;;2.34;100.00;101838.41;10382878;28;20036;-90
2022/12/05 13:53:17;;;;;;;0.00;0.00;;;;;;;2.35;100.00;101841.88;10371708;28;20042;-89
2022/12/05 13:58:17;;;;;;;0.00;0.00;;;;;;;2.32;100.00;101834.16;10387870;28;20030;-90
2022/12/05 14:03:47;;;;;;;0.00;0.00;;;;;;;2.32;100.00;101836.78;10392028;28;20111;-90
2022/12/05 14:08:53;;;;;;;0.00;0.00;;;;;;;2.31;100.00;101848.25;10373173;28;20030;-89
2022/12/05 14:13:53;;;;;;;0.00;0.00;;;;;;;2.29;100.00;101842.22;10374884;28;20031;-90
2022/12/05 14:19:05;;;;;;;0.00;0.00;;;;;;;2.29;100.00;101842.22;10395813;28;20409;-90
2022/12/05 14:24:29;;;;;;;0.00;0.00;;;;;;;2.26;100.00;101837.97;10374397;28;20042;-89
2022/12/05 14:29:48;;;;;;;0.00;0.00;;;;;;;2.25;100.00;101839.75;10376342;28;20056;-90
2022/12/05 14:35:00;;;;;;;0.00;0.00;;;;;;;2.22;100.00;101839.91;10388535;28;20029;-90
2022/12/05 14:40:19;;;;;;;0.00;0.00;;;;;;;2.18;100.00;101837.50;10390971;28;20350;-91
2022/12/05 14:45:39;;;;;;;0.00;0.00;;;;;;;2.14;100.00;101830.72;10395560;28;20017;-90
2022/12/05 14:50:48;;;;;;;0.00;0.00;;;;;;;2.11;100.00;101836.97;10368993;28;20033;-89
2022/12/05 14:55:57;;;;;;;0.00;0.00;;;;;;;2.11;100.00;101836.13;10386057;28;20037;-90
2022/12/05 15:01:00;;;;;;;0.00;0.00;;;;;;;2.06;100.00;101844.25;10389534;28;20132;-90
2022/12/05 15:06:05;;;;;;;0.00;0.00;;;;;;;2.04;100.00;101838.25;10381172;28;20048;-90
2022/12/05 15:11:05;;;;;;;0.00;0.00;;;;;;;1.99;100.00;101841.09;10380442;28;20041;-90
2022/12/05 15:16:18;;;;;;;0.00;0.00;;;;;;;2.03;100.00;101839.16;10385132;28;20485;-90
2022/12/05 15:21:25;;;;;;;0.00;0.00;;;;;;;1.99;100.00;101835.84;10399772;28;20038;-90
2022/12/05 15:26:26;;;;;;;0.00;0.00;;;;;;;1.99;100.00;101838.47;10380499;28;20030;-90
2022/12/05 15:31:28;;;;;;;0.00;0.00;;;;;;;2.00;100.00;101847.19;10395060;28;20033;-89
2022/12/05 15:36:35;;;;;;;0.00;0.00;;;;;;;1.96;100.00;101837.78;10398031;28;20448;-90
2022/12/05 15:41:36;;;;;;;0.00;0.00;;;;;;;2.01;100.00;101851.53;10397045;28;20025;-89
2022/12/05 15:46:37;;;;;;;0.00;0.00;;;;;;;1.99;100.00;101848.13;10379871;28;20038;-90
2022/12/05 15:51:37;;;;;;;0.00;0.00;;;;;;;1.94;100.00;101839.63;10380435;28;20041;-90
2022/12/05 15:56:44;;;;;;;0.00;0.00;;;;;;;1.95;100.00;101841.31;10380435;28;20051;-91
2022/12/05 16:01:50;;;;;;;0.00;0.00;;;;;;;1.96;100.00;101840.41;10393164;28;20025;-89
2022/12/05 16:06:54;;;;;;;0.00;0.00;;;;;;;1.98;100.00;101846.44;10378817;28;20033;-89
2022/12/05 16:12:00;;;;;;;0.00;0.00;;;;;;;1.97;100.00;101839.47;10379155;28;20488;-88
2022/12/05 16:17:03;;;;;;;0.00;0.00;;;;;;;1.99;100.00;101843.72;10384672;28;20026;-89
2022/12/05 16:22:16;;;;;;;0.00;0.00;;;;;;;1.99;100.00;101845.50;10363938;22;20053;-87
2022/12/05 16:27:23;;;;;;;0.00;0.00;;;;;;;2.02;100.00;101853.22;10342667;28;20034;-87
2022/12/05 16:32:24;;;;;;;0.00;0.00;;;;;;;2.04;100.00;101849.59;10323950;28;20038;-88
2022/12/05 16:37:26;;;;;;;0.00;0.00;;;;;;;2.09;100.00;101848.50;10327055;28;20092;-87
2022/12/05 16:42:28;;;;;;;0.00;0.00;;;;;;;2.10;100.00;101844.97;10342339;28;20057;-85
2022/12/05 16:47:41;;;;;;;0.00;0.00;;;;;;;2.09;100.00;101844.09;10342259;28;20392;-85
2022/12/05 16:52:41;;;;;;;0.00;0.00;;;;;;;2.03;100.00;101841.78;10324783;28;20445;-88
2022/12/05 16:57:41;;;;;;;0.00;0.00;;;;;;;2.03;100.00;101847.03;10337128;28;20084;-92
2022/12/05 17:02:42;;;;;;;0.00;0.00;;;;;;;2.02;100.00;101843.56;10305310;28;20270;-92
2022/12/05 17:07:42;;;;;;;0.00;0.00;;;;;;;1.99;100.00;101841.09;10318161;28;20034;-91
2022/12/05 17:12:43;;;;;;;0.00;0.00;;;;;;;2.08;100.00;101841.56;10316324;28;20266;-91
2022/12/05 17:17:44;;;;;;;0.00;0.00;;;;;;;2.08;100.00;101847.66;10316615;28;20626;-91
2022/12/05 17:22:44;;;;;;;0.00;0.00;;;;;;;2.05;100.00;101845.19;10313446;28;20034;-91
2022/12/05 17:27:45;;;;;;;0.00;0.00;;;;;;;2.09;100.00;101838.00;10314841;28;20057;-91
2022/12/05 17:32:45;;;;;;;0.00;0.00;;;;;;;2.10;100.00;101840.56;10315374;28;20270;-90
2022/12/05 17:37:46;;;;;;;0.00;0.00;;;;;;;2.10;100.00;101840.56;10346707;28;20373;-91
2022/12/05 17:42:47;;;;;;;0.00;0.00;;;;;;;2.12;100.00;101838.66;10326390;28;20117;-92
2022/12/05 17:47:48;;;;;;;0.00;0.00;;;;;;;2.12;100.00;101843.09;10315600;28;20046;-91
2022/12/05 17:52:50;;;;;;;0.00;0.00;;;;;;;2.05;100.00;101842.56;10314966;28;20057;-91
2022/12/05 17:57:51;;;;;;;0.00;0.00;;;;;;;1.96;100.00;101822.84;10314891;28;20032;-91
2022/12/05 18:02:51;;;;;;;0.00;0.00;;;;;;;2.01;100.00;101843.66;10313633;28;20030;-93
2022/12/05 18:07:52;;;;;;;0.00;0.00;;;;;;;2.03;100.00;101841.78;10315741;28;20046;-91
2022/12/05 18:12:52;;;;;;;0.00;0.00;;;;;;;2.16;100.00;101857.78;10313412;28;20042;-91
2022/12/05 18:17:54;;;;;;;0.00;0.00;;;;;;;2.08;100.00;101838.94;10313216;28;20033;-91
2022/12/05 18:22:54;;;;;;;0.00;0.00;;;;;;;2.10;100.00;101845.81;10311939;28;20039;-90
2022/12/05 18:27:55;;;;;;;0.00;0.00;;;;;;;2.12;100.00;101850.97;10313063;28;20300;-91
2022/12/05 18:32:55;;;;;;;0.00;0.00;;;;;;;2.10;100.00;101842.34;10312821;28;20133;-91
2022/12/05 18:37:55;;;;;;;0.00;0.00;;;;;;;2.14;100.00;101851.75;10334678;28;20042;-91
2022/12/05 18:42:56;;;;;;;0.00;0.00;;;;;;;2.13;100.00;101845.66;10337863;28;20046;-90
2022/12/05 18:47:56;;;;;;;0.00;0.00;;;;;;;2.21;100.00;101858.38;10338014;28;20300;-91
2022/12/05 18:52:57;;;;;;;0.00;0.00;;;;;;;2.17;100.00;101849.81;10319805;28;20030;-91
2022/12/05 18:57:58;;;;;;;0.00;0.00;;;;;;;2.25;100.00;101859.94;10320513;28;20041;-92
2022/12/05 19:02:59;;;;;;;0.00;0.00;;;;;;;2.24;100.00;101852.94;10320677;28;20058;-91
2022/12/05 19:07:59;;;;;;;0.00;0.00;;;;;;;2.19;100.00;101847.09;10337377;28;20034;-92
2022/12/05 19:12:59;;;;;;;0.00;0.00;;;;;;;2.23;100.00;101849.47;10320019;28;20034;-89
2022/12/05 19:18:00;;;;;;;0.00;0.00;;;;;;;2.23;100.00;101853.88;10319540;28;20261;-89
2022/12/05 19:23:00;;;;;;;0.00;0.00;;;;;;;2.25;100.00;101852.88;10318606;28;20268;-89
2022/12/05 19:28:00;;;;;;;0.00;0.00;;;;;;;2.26;100.00;101854.56;10319628;28;20545;-90
2022/12/05 19:33:01;;;;;;;0.00;0.00;;;;;;;2.14;100.00;101828.94;10335758;28;20034;-89
2022/12/05 19:38:01;;;;;;;0.00;0.00;;;;;;;2.25;100.00;101849.41;10318518;28;20280;-91
2022/12/05 19:43:03;;;;;;;0.00;0.00;;;;;;;2.25;100.00;101852.88;10318601;28;20121;-89
2022/12/05 19:48:03;;;;;;;0.00;0.00;;;;;;;2.16;100.00;101834.97;10312748;28;20026;-91
2022/12/05 19:53:04;;;;;;;0.00;0.00;;;;;;;2.23;100.00;101844.22;10312408;28;20509;-91
2022/12/05 19:58:04;;;;;;;0.00;0.00;;;;;;;2.26;100.00;101851.94;10318665;28;20027;-90
2022/12/05 20:03:04;;;;;;;0.00;0.00;;;;;;;2.26;100.00;101851.94;10334693;28;20645;-89
2022/12/05 20:08:05;;;;;;;0.00;0.00;;;;;;;2.25;100.00;101837.13;10317454;28;20848;-91
2022/12/05 20:13:05;;;;;;;0.00;0.00;;;;;;;2.22;100.00;101834.66;10319303;28;20352;-90
2022/12/05 20:18:05;;;;;;;0.00;0.00;;;;;;;2.22;100.00;101834.66;10317896;28;20482;-90
2022/12/05 20:23:06;;;;;;;0.00;0.00;;;;;;;2.30;100.00;101836.00;10315855;28;20286;-89
2022/12/05 20:28:07;;;;;;;0.00;0.00;;;;;;;2.29;100.00;101829.91;10349654;28;20406;-90
2022/12/05 20:33:08;;;;;;;0.00;0.00;;;;;;;2.29;100.00;101829.91;10317022;28;20037;-90
2022/12/05 20:38:08;;;;;;;0.00;0.00;;;;;;;2.33;100.00;101835.84;10317086;28;20084;-90
2022/12/05 20:43:09;;;;;;;0.00;0.00;;;;;;;2.34;100.00;101824.41;10316096;28;20482;-90
2022/12/05 20:48:09;;;;;;;0.00;0.00;;;;;;;2.31;100.00;101814.06;10316487;28;20041;-90
2022/12/05 20:53:09;;;;;;;0.00;0.00;;;;;;;2.32;100.00;101808.72;10315631;28;20413;-89
2022/12/05 20:58:10;;;;;;;0.00;0.00;;;;;;;2.40;100.00;101809.16;10316273;28;20339;-90
2022/12/05 21:03:11;;;;;;;0.10;0.10;;;;;;;2.42;100.00;101809.09;10332473;28;20037;-90
2022/12/05 21:08:11;;;;;;;0.00;0.00;;;;;;;2.41;100.00;101808.22;10311766;28;20349;-90
2022/12/05 21:13:12;;;;;;;0.00;0.00;;;;;;;2.46;100.00;101806.19;10314473;28;20572;-89
2022/12/05 21:18:12;;;;;;;0.00;0.00;;;;;;;2.43;100.00;101797.63;10316150;28;20117;-90
2022/12/05 21:23:13;;;;;;;0.00;0.00;;;;;;;2.52;100.00;101807.63;10322727;28;20034;-90
2022/12/05 21:28:13;;;;;;;0.00;0.00;;;;;;;2.57;100.00;101807.41;10314505;28;20037;-90
2022/12/05 21:33:13;;;;;;;0.00;0.00;;;;;;;2.59;100.00;101805.53;10314674;28;20030;-90
2022/12/05 21:38:14;;;;;;;0.00;0.00;;;;;;;2.56;100.00;101793.41;10337931;28;20390;-90
2022/12/05 21:43:15;;;;;;;0.00;0.00;;;;;;;2.63;100.00;101800.03;10313979;28;20261;-90
2022/12/05 21:48:15;;;;;;;0.00;0.00;;;;;;;2.67;100.00;101788.38;10314203;28;20521;-89
2022/12/05 21:53:17;;;;;;;0.00;0.00;;;;;;;2.75;100.00;101795.88;10313185;28;20027;-91
2022/12/05 21:58:17;;;;;;;0.00;0.00;;;;;;;2.79;100.00;101793.91;10315101;28;20032;-91
2022/12/05 22:03:17;;;;;;;0.00;0.00;;;;;;;2.78;100.00;101773.81;10313706;28;20026;-90
2022/12/05 22:08:18;;;;;;;0.00;0.00;;;;;;;2.90;100.00;101779.22;10312721;28;20475;-89
2022/12/05 22:13:18;;;;;;;0.00;0.00;;;;;;;2.95;100.00;101773.69;10318451;28;20765;-90
2022/12/05 22:18:18;;;;;;;0.00;0.00;;;;;;;3.01;100.00;101775.13;10321777;28;20030;-90
2022/12/05 22:23:18;;;;;;;0.00;0.00;;;;;;;2.95;100.00;101757.91;10350701;22;20042;-93
2022/12/05 22:28:19;;;;;;;0.00;0.00;;;;;;;3.03;100.00;101763.59;10347596;28;20049;-92
2022/12/05 22:33:19;;;;;;;0.00;0.00;;;;;;;3.06;100.00;101771.31;10328019;28;20498;-93
2022/12/05 22:38:19;;;;;;;0.00;0.00;;;;;;;2.99;100.00;101763.84;10360309;28;20092;-93
2022/12/05 22:43:21;;;;;;;0.00;0.00;;;;;;;3.12;100.00;101776.22;10356756;28;20637;-93
2022/12/05 22:48:22;;;;;;;0.00;0.00;;;;;;;3.08;100.00;101760.69;10343524;28;20696;-93
2022/12/05 22:53:23;;;;;;;0.00;0.00;;;;;;;3.17;100.00;101761.03;10350049;28;20231;-93
2022/12/05 22:58:24;;;;;;;0.00;0.00;;;;;;;3.16;100.00;101756.66;10368040;28;20052;-93
2022/12/05 23:03:24;;;;;;;0.00;0.00;;;;;;;3.21;100.00;101755.56;10335910;28;20036;-93
2022/12/05 23:08:24;;;;;;;0.00;0.00;;;;;;;3.27;100.00;101761.31;10342572;28;20042;-93
2022/12/05 23:13:25;;;;;;;0.00;0.00;;;;;;;3.29;100.00;101764.72;10336194;28;20037;-93
2022/12/05 23:18:25;;;;;;;0.00;0.00;;;;;;;3.23;100.00;101745.78;10352477;28;20021;-92
2022/12/05 23:23:26;;;;;;;0.00;0.00;;;;;;;3.22;100.00;101738.84;10360044;28;20084;-94
2022/12/05 23:28:26;;;;;;;0.00;0.00;;;;;;;3.24;100.00;101731.69;10343214;28;20273;-93
2022/12/05 23:33:26;;;;;;;0.00;0.00;;;;;;;3.29;100.00;101743.66;10365591;28;20033;-93